sensor_id;sensor_type;location;lat;lon;timestamp;P1;durP1;ratioP1;P2;durP2;ratioP2
430;SDS011;202;48.764;9.172;2022-07-23T03:26:17;4.90;;;4.60;;
430;SDS011;202;48.764;9.172;2022-07-23T03:29:03;5.40;;;5.10;;
430;SDS011;202;48.764;9.172;2022-07-23T03:34:25;4.87;;;4.43;;
430;SDS011;202;48.764;9.172;2022-07-23T05:22:36;6.93;;;5.60;;
430;SDS011;202;48.764;9.172;2022-07-23T05:28:36;6.33;;;5.73;;
430;SDS011;202;48.764;9.172;2022-07-23T09:12:41;5.60;;;5.30;;
430;SDS011;202;48.764;9.172;2022-07-23T09:15:21;6.10;;;5.80;;
430;SDS011;202;48.764;9.172;2022-07-23T09:18:00;6.50;;;6.10;;
430;SDS011;202;48.764;9.172;2022-07-23T09:20:42;6.57;;;5.50;;
430;SDS011;202;48.764;9.172;2022-07-23T09:23:27;5.60;;;5.30;;
430;SDS011;202;48.764;9.172;2022-07-23T09:26:31;6.13;;;5.83;;
430;SDS011;202;48.764;9.172;2022-07-23T09:29:07;5.30;;;5.03;;
430;SDS011;202;48.764;9.172;2022-07-23T09:32:06;6.77;;;6.10;;
430;SDS011;202;48.764;9.172;2022-07-23T09:35:04;5.73;;;5.43;;
430;SDS011;202;48.764;9.172;2022-07-23T09:37:32;5.20;;;4.90;;
430;SDS011;202;48.764;9.172;2022-07-23T09:40:10;6.37;;;6.00;;
430;SDS011;202;48.764;9.172;2022-07-23T09:42:56;6.13;;;4.90;;
430;SDS011;202;48.764;9.172;2022-07-23T09:45:37;6.40;;;5.57;;
430;SDS011;202;48.764;9.172;2022-07-23T09:48:30;6.23;;;5.60;;
430;SDS011;202;48.764;9.172;2022-07-23T09:51:01;6.13;;;5.83;;
430;SDS011;202;48.764;9.172;2022-07-23T09:53:36;6.77;;;6.27;;
430;SDS011;202;48.764;9.172;2022-07-23T09:56:21;6.87;;;6.47;;
430;SDS011;202;48.764;9.172;2022-07-23T09:58:51;5.57;;;5.27;;
430;SDS011;202;48.764;9.172;2022-07-23T10:01:29;6.10;;;5.80;;
430;SDS011;202;48.764;9.172;2022-07-23T10:03:59;6.50;;;6.10;;
430;SDS011;202;48.764;9.172;2022-07-23T10:06:27;7.10;;;6.27;;
430;SDS011;202;48.764;9.172;2022-07-23T10:08:55;6.50;;;6.10;;
430;SDS011;202;48.764;9.172;2022-07-23T10:11:26;6.10;;;5.80;;
430;SDS011;202;48.764;9.172;2022-07-23T10:13:56;6.20;;;5.90;;
430;SDS011;202;48.764;9.172;2022-07-23T10:16:27;6.13;;;5.73;;
430;SDS011;202;48.764;9.172;2022-07-23T10:18:55;6.73;;;6.33;;
430;SDS011;202;48.764;9.172;2022-07-23T10:21:24;6.50;;;6.10;;
430;SDS011;202;48.764;9.172;2022-07-23T10:24:11;5.27;;;4.97;;
430;SDS011;202;48.764;9.172;2022-07-23T10:26:49;5.20;;;4.90;;
430;SDS011;202;48.764;9.172;2022-07-23T10:29:32;6.23;;;5.90;;
430;SDS011;202;48.764;9.172;2022-07-23T10:32:15;5.53;;;5.23;;
430;SDS011;202;48.764;9.172;2022-07-23T10:34:52;6.93;;;5.80;;
430;SDS011;202;48.764;9.172;2022-07-23T10:37:31;5.80;;;5.57;;
430;SDS011;202;48.764;9.172;2022-07-23T10:40:11;5.50;;;5.20;;
430;SDS011;202;48.764;9.172;2022-07-23T10:42:48;6.17;;;5.87;;
430;SDS011;202;48.764;9.172;2022-07-23T10:45:29;6.90;;;5.33;;
430;SDS011;202;48.764;9.172;2022-07-23T10:48:11;6.17;;;4.90;;
430;SDS011;202;48.764;9.172;2022-07-23T10:50:43;5.47;;;5.17;;
430;SDS011;202;48.764;9.172;2022-07-23T10:53:29;5.77;;;5.47;;
430;SDS011;202;48.764;9.172;2022-07-23T11:02:48;6.20;;;5.57;;
430;SDS011;202;48.764;9.172;2022-07-23T11:05:39;6.53;;;6.13;;
430;SDS011;202;48.764;9.172;2022-07-23T11:08:11;6.20;;;5.90;;
430;SDS011;202;48.764;9.172;2022-07-23T11:10:48;5.73;;;5.43;;
430;SDS011;202;48.764;9.172;2022-07-23T11:13:30;6.20;;;5.90;;
430;SDS011;202;48.764;9.172;2022-07-23T11:16:05;5.93;;;5.63;;
430;SDS011;202;48.764;9.172;2022-07-23T11:18:56;6.30;;;5.97;;
430;SDS011;202;48.764;9.172;2022-07-23T11:21:44;6.53;;;6.10;;
430;SDS011;202;48.764;9.172;2022-07-23T11:24:17;6.43;;;6.03;;
430;SDS011;202;48.764;9.172;2022-07-23T11:29:46;11.30;;;10.70;;
430;SDS011;202;48.764;9.172;2022-07-23T11:35:23;6.10;;;5.80;;
430;SDS011;202;48.764;9.172;2022-07-23T11:37:53;5.83;;;5.53;;
430;SDS011;202;48.764;9.172;2022-07-23T11:40:26;6.00;;;5.70;;
430;SDS011;202;48.764;9.172;2022-07-23T11:42:55;6.17;;;5.83;;
430;SDS011;202;48.764;9.172;2022-07-23T11:45:24;7.77;;;7.40;;
430;SDS011;202;48.764;9.172;2022-07-23T11:47:56;6.47;;;6.07;;
430;SDS011;202;48.764;9.172;2022-07-23T11:50:27;7.47;;;6.47;;
430;SDS011;202;48.764;9.172;2022-07-23T11:53:02;6.47;;;6.07;;
430;SDS011;202;48.764;9.172;2022-07-23T11:55:32;8.90;;;6.10;;
430;SDS011;202;48.764;9.172;2022-07-23T11:58:04;6.50;;;6.10;;
430;SDS011;202;48.764;9.172;2022-07-23T12:00:45;6.47;;;5.63;;
430;SDS011;202;48.764;9.172;2022-07-23T12:03:20;7.30;;;6.90;;
430;SDS011;202;48.764;9.172;2022-07-23T12:05:48;7.53;;;7.13;;
430;SDS011;202;48.764;9.172;2022-07-23T12:08:25;6.73;;;6.33;;
430;SDS011;202;48.764;9.172;2022-07-23T12:10:52;7.00;;;6.60;;
430;SDS011;202;48.764;9.172;2022-07-23T12:13:20;6.07;;;5.53;;
430;SDS011;202;48.764;9.172;2022-07-23T12:15:49;7.07;;;6.70;;
430;SDS011;202;48.764;9.172;2022-07-23T12:18:23;6.77;;;6.37;;
430;SDS011;202;48.764;9.172;2022-07-23T12:20:53;6.80;;;6.40;;
430;SDS011;202;48.764;9.172;2022-07-23T12:23:24;7.53;;;6.63;;
430;SDS011;202;48.764;9.172;2022-07-23T12:26:00;7.50;;;7.10;;
430;SDS011;202;48.764;9.172;2022-07-23T12:28:29;6.93;;;6.53;;
430;SDS011;202;48.764;9.172;2022-07-23T12:31:00;6.53;;;6.13;;
430;SDS011;202;48.764;9.172;2022-07-23T12:33:30;6.87;;;6.47;;
430;SDS011;202;48.764;9.172;2022-07-23T12:36:03;6.57;;;6.17;;
430;SDS011;202;48.764;9.172;2022-07-23T12:38:36;7.20;;;6.80;;
430;SDS011;202;48.764;9.172;2022-07-23T12:41:08;7.27;;;6.87;;
430;SDS011;202;48.764;9.172;2022-07-23T12:43:36;8.00;;;7.60;;
430;SDS011;202;48.764;9.172;2022-07-23T12:46:06;7.93;;;7.53;;
430;SDS011;202;48.764;9.172;2022-07-23T12:48:35;8.40;;;7.27;;
430;SDS011;202;48.764;9.172;2022-07-23T12:51:05;6.90;;;6.50;;
430;SDS011;202;48.764;9.172;2022-07-23T12:53:36;7.40;;;7.03;;
430;SDS011;202;48.764;9.172;2022-07-23T12:56:06;8.40;;;7.30;;
430;SDS011;202;48.764;9.172;2022-07-23T12:58:41;7.00;;;6.60;;
430;SDS011;202;48.764;9.172;2022-07-23T13:01:10;7.30;;;6.90;;
430;SDS011;202;48.764;9.172;2022-07-23T13:03:56;7.43;;;7.03;;
430;SDS011;202;48.764;9.172;2022-07-23T13:06:28;7.97;;;7.57;;
430;SDS011;202;48.764;9.172;2022-07-23T13:08:57;7.60;;;7.20;;
430;SDS011;202;48.764;9.172;2022-07-23T13:11:24;8.47;;;6.43;;
430;SDS011;202;48.764;9.172;2022-07-23T13:13:53;8.00;;;7.37;;
430;SDS011;202;48.764;9.172;2022-07-23T13:16:21;6.97;;;6.57;;
430;SDS011;202;48.764;9.172;2022-07-23T13:18:54;6.40;;;6.03;;
430;SDS011;202;48.764;9.172;2022-07-23T13:21:21;5.83;;;5.53;;
430;SDS011;202;48.764;9.172;2022-07-23T13:23:53;6.57;;;6.20;;
430;SDS011;202;48.764;9.172;2022-07-23T13:26:24;7.10;;;6.70;;
430;SDS011;202;48.764;9.172;2022-07-23T13:28:54;8.20;;;6.33;;
430;SDS011;202;48.764;9.172;2022-07-23T13:31:21;6.70;;;6.30;;
430;SDS011;202;48.764;9.172;2022-07-23T13:33:51;6.60;;;6.20;;
430;SDS011;202;48.764;9.172;2022-07-23T13:36:19;6.40;;;6.00;;
430;SDS011;202;48.764;9.172;2022-07-23T13:38:48;6.60;;;6.20;;
430;SDS011;202;48.764;9.172;2022-07-23T13:41:18;8.70;;;6.37;;
430;SDS011;202;48.764;9.172;2022-07-23T13:43:45;7.73;;;7.33;;
430;SDS011;202;48.764;9.172;2022-07-23T13:46:13;7.00;;;6.60;;
430;SDS011;202;48.764;9.172;2022-07-23T13:48:41;7.37;;;6.97;;
430;SDS011;202;48.764;9.172;2022-07-23T13:51:08;8.80;;;8.30;;
430;SDS011;202;48.764;9.172;2022-07-23T13:53:36;6.90;;;6.50;;
430;SDS011;202;48.764;9.172;2022-07-23T13:56:05;6.77;;;6.37;;
430;SDS011;202;48.764;9.172;2022-07-23T13:58:32;8.83;;;8.33;;
430;SDS011;202;48.764;9.172;2022-07-23T14:00:59;7.60;;;7.20;;
430;SDS011;202;48.764;9.172;2022-07-23T14:03:26;6.80;;;6.40;;
430;SDS011;202;48.764;9.172;2022-07-23T14:05:53;8.10;;;7.70;;
430;SDS011;202;48.764;9.172;2022-07-23T14:08:21;8.07;;;7.67;;
430;SDS011;202;48.764;9.172;2022-07-23T14:10:48;9.00;;;7.40;;
430;SDS011;202;48.764;9.172;2022-07-23T14:13:19;7.57;;;7.17;;
430;SDS011;202;48.764;9.172;2022-07-23T14:15:47;11.17;;;8.00;;
430;SDS011;202;48.764;9.172;2022-07-23T14:18:17;8.23;;;7.80;;
430;SDS011;202;48.764;9.172;2022-07-23T14:20:44;8.10;;;7.70;;
430;SDS011;202;48.764;9.172;2022-07-23T14:23:11;7.77;;;7.37;;
430;SDS011;202;48.764;9.172;2022-07-23T14:25:40;7.80;;;7.40;;
430;SDS011;202;48.764;9.172;2022-07-23T14:28:07;8.50;;;8.00;;
430;SDS011;202;48.764;9.172;2022-07-23T14:30:35;7.77;;;7.37;;
430;SDS011;202;48.764;9.172;2022-07-23T14:33:02;8.00;;;7.10;;
430;SDS011;202;48.764;9.172;2022-07-23T14:35:30;7.77;;;7.37;;
430;SDS011;202;48.764;9.172;2022-07-23T14:38:00;8.80;;;8.30;;
430;SDS011;202;48.764;9.172;2022-07-23T14:40:29;6.77;;;6.30;;
430;SDS011;202;48.764;9.172;2022-07-23T14:42:56;8.33;;;7.23;;
430;SDS011;202;48.764;9.172;2022-07-23T14:45:24;7.93;;;7.53;;
430;SDS011;202;48.764;9.172;2022-07-23T14:47:56;6.93;;;6.53;;
430;SDS011;202;48.764;9.172;2022-07-23T14:50:29;7.87;;;7.47;;
430;SDS011;202;48.764;9.172;2022-07-23T14:52:57;7.10;;;6.70;;
430;SDS011;202;48.764;9.172;2022-07-23T14:55:24;7.97;;;7.57;;
430;SDS011;202;48.764;9.172;2022-07-23T14:57:51;7.87;;;7.47;;
430;SDS011;202;48.764;9.172;2022-07-23T15:00:18;8.50;;;8.00;;
430;SDS011;202;48.764;9.172;2022-07-23T15:02:47;7.70;;;7.30;;
430;SDS011;202;48.764;9.172;2022-07-23T15:05:18;8.23;;;7.10;;
430;SDS011;202;48.764;9.172;2022-07-23T15:07:45;7.53;;;7.13;;
430;SDS011;202;48.764;9.172;2022-07-23T15:10:17;5.80;;;5.50;;
430;SDS011;202;48.764;9.172;2022-07-23T20:13:32;11.47;;;10.87;;
430;SDS011;202;48.764;9.172;2022-07-23T20:19:35;10.20;;;9.70;;
430;SDS011;202;48.764;9.172;2022-07-23T20:46:04;11.20;;;10.60;;
430;SDS011;202;48.764;9.172;2022-07-23T21:12:13;14.83;;;13.27;;
430;SDS011;202;48.764;9.172;2022-07-23T21:17:48;11.53;;;10.93;;
430;SDS011;202;48.764;9.172;2022-07-23T21:46:50;12.13;;;11.20;;
430;SDS011;202;48.764;9.172;2022-07-23T21:53:16;12.70;;;12.03;;
430;SDS011;202;48.764;9.172;2022-07-23T21:56:15;10.33;;;9.77;;
430;SDS011;202;48.764;9.172;2022-07-23T21:59:00;11.17;;;10.57;;
430;SDS011;202;48.764;9.172;2022-07-23T22:01:46;12.43;;;10.60;;
430;SDS011;202;48.764;9.172;2022-07-23T22:04:15;10.97;;;10.37;;
430;SDS011;202;48.764;9.172;2022-07-23T22:06:49;11.23;;;10.63;;
430;SDS011;202;48.764;9.172;2022-07-23T22:09:24;11.33;;;10.73;;
430;SDS011;202;48.764;9.172;2022-07-23T22:12:07;11.70;;;11.10;;
430;SDS011;202;48.764;9.172;2022-07-23T22:14:58;11.50;;;10.90;;
430;SDS011;202;48.764;9.172;2022-07-23T22:17:51;10.77;;;10.17;;
430;SDS011;202;48.764;9.172;2022-07-23T22:20:28;12.83;;;11.00;;
430;SDS011;202;48.764;9.172;2022-07-23T22:22:58;10.73;;;10.13;;
430;SDS011;202;48.764;9.172;2022-07-23T22:25:33;11.20;;;10.60;;
430;SDS011;202;48.764;9.172;2022-07-23T22:28:02;11.90;;;11.30;;
430;SDS011;202;48.764;9.172;2022-07-23T22:30:36;10.87;;;9.97;;
430;SDS011;202;48.764;9.172;2022-07-23T22:40:21;12.17;;;11.57;;
430;SDS011;202;48.764;9.172;2022-07-23T22:54:27;10.03;;;9.50;;
430;SDS011;202;48.764;9.172;2022-07-23T23:01:23;10.60;;;10.03;;
430;SDS011;202;48.764;9.172;2022-07-23T23:11:12;9.63;;;9.13;;
